sensor_id;sensor_type;location;lat;lon;timestamp;P1;durP1;ratioP1;P2;durP2;ratioP2
14251;SDS011;7210;51.502;10.722;2023-11-19T00:01:50;6.40;;;4.50;;
14251;SDS011;7210;51.502;10.722;2023-11-19T00:04:17;5.13;;;4.63;;
14251;SDS011;7210;51.502;10.722;2023-11-19T00:06:44;5.57;;;5.07;;
14251;SDS011;7210;51.502;10.722;2023-11-19T00:09:14;5.33;;;4.83;;
14251;SDS011;7210;51.502;10.722;2023-11-19T00:11:42;5.40;;;4.90;;
14251;SDS011;7210;51.502;10.722;2023-11-19T00:14:09;5.73;;;5.13;;
14251;SDS011;7210;51.502;10.722;2023-11-19T00:16:38;5.90;;;5.30;;
14251;SDS011;7210;51.502;10.722;2023-11-19T00:19:05;5.93;;;4.57;;
14251;SDS011;7210;51.502;10.722;2023-11-19T00:21:33;5.80;;;5.03;;
14251;SDS011;7210;51.502;10.722;2023-11-19T00:24:01;5.80;;;4.90;;
14251;SDS011;7210;51.502;10.722;2023-11-19T00:26:32;4.77;;;4.30;;
14251;SDS011;7210;51.502;10.722;2023-11-19T00:29:00;6.63;;;5.10;;
14251;SDS011;7210;51.502;10.722;2023-11-19T00:31:27;6.00;;;5.40;;
14251;SDS011;7210;51.502;10.722;2023-11-19T00:33:56;5.77;;;4.87;;
14251;SDS011;7210;51.502;10.722;2023-11-19T00:36:22;6.73;;;5.13;;
14251;SDS011;7210;51.502;10.722;2023-11-19T00:38:50;6.77;;;4.87;;
14251;SDS011;7210;51.502;10.722;2023-11-19T00:41:18;6.17;;;4.83;;
14251;SDS011;7210;51.502;10.722;2023-11-19T00:43:45;6.63;;;5.20;;
14251;SDS011;7210;51.502;10.722;2023-11-19T00:46:14;5.73;;;5.13;;
14251;SDS011;7210;51.502;10.722;2023-11-19T00:48:41;5.97;;;5.00;;
14251;SDS011;7210;51.502;10.722;2023-11-19T00:51:16;5.23;;;4.73;;
14251;SDS011;7210;51.502;10.722;2023-11-19T00:53:42;6.10;;;5.23;;
14251;SDS011;7210;51.502;10.722;2023-11-19T00:56:10;5.30;;;4.80;;
14251;SDS011;7210;51.502;10.722;2023-11-19T00:58:38;5.27;;;4.77;;
14251;SDS011;7210;51.502;10.722;2023-11-19T01:01:05;5.23;;;4.73;;
14251;SDS011;7210;51.502;10.722;2023-11-19T01:03:32;4.93;;;4.43;;
14251;SDS011;7210;51.502;10.722;2023-11-19T01:05:59;5.03;;;4.57;;
14251;SDS011;7210;51.502;10.722;2023-11-19T01:08:29;5.33;;;4.83;;
14251;SDS011;7210;51.502;10.722;2023-11-19T01:10:56;5.27;;;4.57;;
14251;SDS011;7210;51.502;10.722;2023-11-19T01:13:23;5.77;;;4.60;;
14251;SDS011;7210;51.502;10.722;2023-11-19T01:15:50;5.00;;;4.47;;
14251;SDS011;7210;51.502;10.722;2023-11-19T01:18:17;5.30;;;4.80;;
14251;SDS011;7210;51.502;10.722;2023-11-19T01:20:45;5.03;;;4.53;;
14251;SDS011;7210;51.502;10.722;2023-11-19T01:23:12;4.90;;;4.50;;
14251;SDS011;7210;51.502;10.722;2023-11-19T01:25:40;5.20;;;4.70;;
14251;SDS011;7210;51.502;10.722;2023-11-19T01:28:08;5.50;;;5.00;;
14251;SDS011;7210;51.502;10.722;2023-11-19T01:30:35;6.53;;;5.10;;
14251;SDS011;7210;51.502;10.722;2023-11-19T01:33:02;5.73;;;5.23;;
14251;SDS011;7210;51.502;10.722;2023-11-19T01:35:29;5.47;;;4.97;;
14251;SDS011;7210;51.502;10.722;2023-11-19T01:37:56;5.57;;;5.07;;
14251;SDS011;7210;51.502;10.722;2023-11-19T01:40:23;5.90;;;5.40;;
14251;SDS011;7210;51.502;10.722;2023-11-19T01:42:52;5.80;;;5.30;;
14251;SDS011;7210;51.502;10.722;2023-11-19T01:45:22;5.93;;;5.43;;
14251;SDS011;7210;51.502;10.722;2023-11-19T01:47:54;6.17;;;5.57;;
14251;SDS011;7210;51.502;10.722;2023-11-19T01:50:21;6.77;;;6.17;;
14251;SDS011;7210;51.502;10.722;2023-11-19T01:52:50;6.47;;;5.83;;
14251;SDS011;7210;51.502;10.722;2023-11-19T01:55:18;5.83;;;5.23;;
14251;SDS011;7210;51.502;10.722;2023-11-19T01:57:47;6.50;;;5.90;;
14251;SDS011;7210;51.502;10.722;2023-11-19T02:00:19;5.93;;;5.37;;
14251;SDS011;7210;51.502;10.722;2023-11-19T02:02:50;5.93;;;5.33;;
14251;SDS011;7210;51.502;10.722;2023-11-19T02:05:22;5.40;;;5.00;;
14251;SDS011;7210;51.502;10.722;2023-11-19T02:07:49;5.60;;;5.03;;
14251;SDS011;7210;51.502;10.722;2023-11-19T02:10:26;6.23;;;5.63;;
14251;SDS011;7210;51.502;10.722;2023-11-19T02:12:53;5.80;;;5.30;;
14251;SDS011;7210;51.502;10.722;2023-11-19T02:15:22;5.97;;;5.37;;
14251;SDS011;7210;51.502;10.722;2023-11-19T02:17:50;5.03;;;4.57;;
14251;SDS011;7210;51.502;10.722;2023-11-19T02:20:17;6.00;;;5.43;;
14251;SDS011;7210;51.502;10.722;2023-11-19T02:22:45;6.43;;;5.83;;
14251;SDS011;7210;51.502;10.722;2023-11-19T02:25:15;6.90;;;5.73;;
14251;SDS011;7210;51.502;10.722;2023-11-19T02:27:54;6.03;;;5.30;;
14251;SDS011;7210;51.502;10.722;2023-11-19T02:30:24;6.13;;;5.53;;
14251;SDS011;7210;51.502;10.722;2023-11-19T02:32:53;6.07;;;5.50;;
14251;SDS011;7210;51.502;10.722;2023-11-19T02:35:22;6.87;;;5.60;;
14251;SDS011;7210;51.502;10.722;2023-11-19T02:37:49;5.40;;;4.90;;
14251;SDS011;7210;51.502;10.722;2023-11-19T02:40:16;5.40;;;4.90;;
14251;SDS011;7210;51.502;10.722;2023-11-19T02:42:43;5.60;;;4.47;;
14251;SDS011;7210;51.502;10.722;2023-11-19T02:45:11;4.87;;;4.47;;
14251;SDS011;7210;51.502;10.722;2023-11-19T02:47:39;5.50;;;4.87;;
14251;SDS011;7210;51.502;10.722;2023-11-19T02:50:14;5.10;;;4.60;;
14251;SDS011;7210;51.502;10.722;2023-11-19T02:52:41;5.03;;;4.00;;
14251;SDS011;7210;51.502;10.722;2023-11-19T02:55:14;5.03;;;4.03;;
14251;SDS011;7210;51.502;10.722;2023-11-19T02:57:44;4.63;;;4.10;;
14251;SDS011;7210;51.502;10.722;2023-11-19T03:00:15;5.33;;;4.60;;
14251;SDS011;7210;51.502;10.722;2023-11-19T03:02:44;5.10;;;4.60;;
14251;SDS011;7210;51.502;10.722;2023-11-19T03:05:13;5.33;;;4.83;;
14251;SDS011;7210;51.502;10.722;2023-11-19T03:07:41;5.87;;;5.37;;
14251;SDS011;7210;51.502;10.722;2023-11-19T03:10:09;5.40;;;4.90;;
14251;SDS011;7210;51.502;10.722;2023-11-19T03:12:39;5.63;;;4.77;;
14251;SDS011;7210;51.502;10.722;2023-11-19T03:15:06;5.40;;;4.90;;
14251;SDS011;7210;51.502;10.722;2023-11-19T03:17:37;5.50;;;5.00;;
14251;SDS011;7210;51.502;10.722;2023-11-19T03:20:05;6.10;;;5.00;;
14251;SDS011;7210;51.502;10.722;2023-11-19T03:22:34;5.93;;;4.90;;
14251;SDS011;7210;51.502;10.722;2023-11-19T03:25:03;5.97;;;5.37;;
14251;SDS011;7210;51.502;10.722;2023-11-19T03:27:33;6.13;;;4.90;;
14251;SDS011;7210;51.502;10.722;2023-11-19T03:30:01;6.10;;;5.50;;
14251;SDS011;7210;51.502;10.722;2023-11-19T03:32:30;6.20;;;5.53;;
14251;SDS011;7210;51.502;10.722;2023-11-19T03:34:58;5.63;;;5.13;;
14251;SDS011;7210;51.502;10.722;2023-11-19T03:37:25;5.80;;;4.77;;
14251;SDS011;7210;51.502;10.722;2023-11-19T03:39:53;6.30;;;5.33;;
14251;SDS011;7210;51.502;10.722;2023-11-19T03:42:20;5.93;;;5.23;;
14251;SDS011;7210;51.502;10.722;2023-11-19T03:44:47;6.70;;;5.53;;
14251;SDS011;7210;51.502;10.722;2023-11-19T03:47:20;6.63;;;5.80;;
14251;SDS011;7210;51.502;10.722;2023-11-19T03:49:48;6.33;;;5.00;;
14251;SDS011;7210;51.502;10.722;2023-11-19T03:52:17;6.03;;;5.43;;
14251;SDS011;7210;51.502;10.722;2023-11-19T03:54:44;5.60;;;5.00;;
14251;SDS011;7210;51.502;10.722;2023-11-19T03:57:11;5.67;;;5.10;;
14251;SDS011;7210;51.502;10.722;2023-11-19T03:59:44;6.43;;;5.23;;
14251;SDS011;7210;51.502;10.722;2023-11-19T04:02:11;5.53;;;4.97;;
14251;SDS011;7210;51.502;10.722;2023-11-19T04:04:38;5.60;;;5.10;;
14251;SDS011;7210;51.502;10.722;2023-11-19T04:07:05;5.43;;;4.90;;
14251;SDS011;7210;51.502;10.722;2023-11-19T04:09:34;6.07;;;5.47;;
14251;SDS011;7210;51.502;10.722;2023-11-19T04:12:03;5.80;;;5.17;;
14251;SDS011;7210;51.502;10.722;2023-11-19T04:14:30;6.30;;;5.57;;
14251;SDS011;7210;51.502;10.722;2023-11-19T04:16:57;5.93;;;5.13;;
14251;SDS011;7210;51.502;10.722;2023-11-19T04:19:26;7.23;;;5.70;;
14251;SDS011;7210;51.502;10.722;2023-11-19T04:21:56;6.47;;;5.47;;
14251;SDS011;7210;51.502;10.722;2023-11-19T04:24:22;7.53;;;6.30;;
14251;SDS011;7210;51.502;10.722;2023-11-19T04:26:51;5.40;;;4.90;;
14251;SDS011;7210;51.502;10.722;2023-11-19T04:29:18;6.47;;;5.57;;
14251;SDS011;7210;51.502;10.722;2023-11-19T04:31:45;6.50;;;5.53;;
14251;SDS011;7210;51.502;10.722;2023-11-19T04:34:12;7.20;;;5.60;;
14251;SDS011;7210;51.502;10.722;2023-11-19T04:36:39;6.47;;;5.43;;
14251;SDS011;7210;51.502;10.722;2023-11-19T04:39:06;6.77;;;5.80;;
14251;SDS011;7210;51.502;10.722;2023-11-19T04:41:45;7.20;;;5.80;;
14251;SDS011;7210;51.502;10.722;2023-11-19T04:44:14;6.63;;;5.87;;
14251;SDS011;7210;51.502;10.722;2023-11-19T04:46:42;6.17;;;5.43;;
14251;SDS011;7210;51.502;10.722;2023-11-19T04:49:10;6.63;;;5.90;;
14251;SDS011;7210;51.502;10.722;2023-11-19T04:51:38;8.60;;;6.87;;
14251;SDS011;7210;51.502;10.722;2023-11-19T04:54:07;6.80;;;6.10;;
14251;SDS011;7210;51.502;10.722;2023-11-19T04:56:35;7.20;;;6.40;;
14251;SDS011;7210;51.502;10.722;2023-11-19T04:59:02;7.00;;;6.00;;
14251;SDS011;7210;51.502;10.722;2023-11-19T05:01:32;6.47;;;5.80;;
14251;SDS011;7210;51.502;10.722;2023-11-19T05:03:59;7.33;;;6.03;;
14251;SDS011;7210;51.502;10.722;2023-11-19T05:06:27;9.43;;;6.07;;
14251;SDS011;7210;51.502;10.722;2023-11-19T05:08:54;6.13;;;5.53;;
14251;SDS011;7210;51.502;10.722;2023-11-19T05:11:21;7.27;;;6.13;;
14251;SDS011;7210;51.502;10.722;2023-11-19T05:13:48;8.17;;;6.50;;
14251;SDS011;7210;51.502;10.722;2023-11-19T05:16:16;7.40;;;6.40;;
14251;SDS011;7210;51.502;10.722;2023-11-19T05:18:45;6.90;;;6.20;;
14251;SDS011;7210;51.502;10.722;2023-11-19T05:21:12;6.57;;;5.93;;
14251;SDS011;7210;51.502;10.722;2023-11-19T05:23:44;6.30;;;5.70;;
14251;SDS011;7210;51.502;10.722;2023-11-19T05:26:16;6.90;;;5.97;;
14251;SDS011;7210;51.502;10.722;2023-11-19T05:28:45;7.67;;;6.40;;
14251;SDS011;7210;51.502;10.722;2023-11-19T05:31:12;8.73;;;6.67;;
14251;SDS011;7210;51.502;10.722;2023-11-19T05:33:39;6.97;;;5.83;;
14251;SDS011;7210;51.502;10.722;2023-11-19T05:36:07;7.00;;;5.90;;
14251;SDS011;7210;51.502;10.722;2023-11-19T05:38:35;6.17;;;5.47;;
14251;SDS011;7210;51.502;10.722;2023-11-19T05:41:02;6.57;;;5.73;;
14251;SDS011;7210;51.502;10.722;2023-11-19T05:43:29;6.90;;;5.17;;
14251;SDS011;7210;51.502;10.722;2023-11-19T05:45:56;6.47;;;4.83;;
14251;SDS011;7210;51.502;10.722;2023-11-19T05:48:26;5.73;;;4.30;;
14251;SDS011;7210;51.502;10.722;2023-11-19T05:50:54;3.17;;;2.63;;
14251;SDS011;7210;51.502;10.722;2023-11-19T05:53:22;3.93;;;2.97;;
14251;SDS011;7210;51.502;10.722;2023-11-19T05:55:50;4.27;;;3.40;;
14251;SDS011;7210;51.502;10.722;2023-11-19T05:58:22;3.50;;;2.50;;
14251;SDS011;7210;51.502;10.722;2023-11-19T06:00:51;2.23;;;2.03;;
14251;SDS011;7210;51.502;10.722;2023-11-19T06:03:20;2.63;;;1.90;;
14251;SDS011;7210;51.502;10.722;2023-11-19T06:05:47;2.47;;;1.80;;
14251;SDS011;7210;51.502;10.722;2023-11-19T06:08:15;1.90;;;1.80;;
14251;SDS011;7210;51.502;10.722;2023-11-19T06:10:44;3.43;;;1.90;;
14251;SDS011;7210;51.502;10.722;2023-11-19T06:13:12;1.60;;;1.50;;
14251;SDS011;7210;51.502;10.722;2023-11-19T06:15:40;1.90;;;1.80;;
14251;SDS011;7210;51.502;10.722;2023-11-19T06:18:07;1.83;;;1.73;;
14251;SDS011;7210;51.502;10.722;2023-11-19T06:20:35;1.90;;;1.80;;
14251;SDS011;7210;51.502;10.722;2023-11-19T06:23:02;2.57;;;2.00;;
14251;SDS011;7210;51.502;10.722;2023-11-19T06:25:29;4.00;;;2.13;;
14251;SDS011;7210;51.502;10.722;2023-11-19T06:27:58;2.67;;;2.40;;
14251;SDS011;7210;51.502;10.722;2023-11-19T06:30:25;2.70;;;2.40;;
14251;SDS011;7210;51.502;10.722;2023-11-19T06:32:53;4.10;;;2.53;;
14251;SDS011;7210;51.502;10.722;2023-11-19T06:35:20;2.83;;;2.20;;
14251;SDS011;7210;51.502;10.722;2023-11-19T06:37:47;2.43;;;2.13;;
14251;SDS011;7210;51.502;10.722;2023-11-19T06:40:14;3.30;;;2.10;;
14251;SDS011;7210;51.502;10.722;2023-11-19T06:42:42;2.00;;;1.70;;
14251;SDS011;7210;51.502;10.722;2023-11-19T06:45:10;1.97;;;1.70;;
14251;SDS011;7210;51.502;10.722;2023-11-19T06:47:37;1.53;;;1.43;;
14251;SDS011;7210;51.502;10.722;2023-11-19T06:50:05;1.80;;;1.40;;
14251;SDS011;7210;51.502;10.722;2023-11-19T06:52:34;1.63;;;1.50;;
14251;SDS011;7210;51.502;10.722;2023-11-19T06:55:02;2.50;;;1.47;;
14251;SDS011;7210;51.502;10.722;2023-11-19T06:57:30;1.47;;;1.37;;
14251;SDS011;7210;51.502;10.722;2023-11-19T06:59:57;3.10;;;1.57;;
14251;SDS011;7210;51.502;10.722;2023-11-19T07:02:26;3.07;;;1.87;;
14251;SDS011;7210;51.502;10.722;2023-11-19T07:04:53;3.03;;;1.90;;
14251;SDS011;7210;51.502;10.722;2023-11-19T07:07:20;2.10;;;1.90;;
14251;SDS011;7210;51.502;10.722;2023-11-19T07:09:47;3.50;;;1.90;;
14251;SDS011;7210;51.502;10.722;2023-11-19T07:12:14;2.70;;;1.80;;
14251;SDS011;7210;51.502;10.722;2023-11-19T07:14:41;2.27;;;1.93;;
14251;SDS011;7210;51.502;10.722;2023-11-19T07:17:08;3.80;;;2.17;;
14251;SDS011;7210;51.502;10.722;2023-11-19T07:19:37;3.63;;;2.30;;
14251;SDS011;7210;51.502;10.722;2023-11-19T07:22:04;4.03;;;2.50;;
14251;SDS011;7210;51.502;10.722;2023-11-19T07:24:32;5.90;;;2.40;;
14251;SDS011;7210;51.502;10.722;2023-11-19T07:26:59;4.90;;;2.47;;
14251;SDS011;7210;51.502;10.722;2023-11-19T07:29:28;5.50;;;2.63;;
14251;SDS011;7210;51.502;10.722;2023-11-19T07:31:56;5.10;;;2.67;;
14251;SDS011;7210;51.502;10.722;2023-11-19T07:34:27;4.70;;;2.63;;
14251;SDS011;7210;51.502;10.722;2023-11-19T07:36:55;6.70;;;2.47;;
14251;SDS011;7210;51.502;10.722;2023-11-19T07:39:27;5.17;;;2.73;;
14251;SDS011;7210;51.502;10.722;2023-11-19T07:41:54;7.07;;;2.57;;
14251;SDS011;7210;51.502;10.722;2023-11-19T07:44:21;10.40;;;3.10;;
14251;SDS011;7210;51.502;10.722;2023-11-19T07:46:48;7.27;;;2.70;;
14251;SDS011;7210;51.502;10.722;2023-11-19T07:49:15;7.10;;;2.30;;
14251;SDS011;7210;51.502;10.722;2023-11-19T07:51:42;6.70;;;2.47;;
14251;SDS011;7210;51.502;10.722;2023-11-19T07:54:16;5.93;;;2.30;;
14251;SDS011;7210;51.502;10.722;2023-11-19T07:56:43;4.43;;;2.20;;
14251;SDS011;7210;51.502;10.722;2023-11-19T07:59:10;6.93;;;2.50;;
14251;SDS011;7210;51.502;10.722;2023-11-19T08:01:39;6.77;;;2.37;;
14251;SDS011;7210;51.502;10.722;2023-11-19T08:04:06;6.63;;;2.70;;
14251;SDS011;7210;51.502;10.722;2023-11-19T08:06:33;6.03;;;1.93;;
14251;SDS011;7210;51.502;10.722;2023-11-19T08:09:01;5.27;;;2.03;;
14251;SDS011;7210;51.502;10.722;2023-11-19T08:11:30;8.23;;;2.53;;
14251;SDS011;7210;51.502;10.722;2023-11-19T08:13:57;8.50;;;2.47;;
14251;SDS011;7210;51.502;10.722;2023-11-19T08:16:27;10.57;;;2.63;;
14251;SDS011;7210;51.502;10.722;2023-11-19T08:18:54;5.53;;;2.10;;
14251;SDS011;7210;51.502;10.722;2023-11-19T08:21:23;7.40;;;2.60;;
14251;SDS011;7210;51.502;10.722;2023-11-19T08:23:52;9.77;;;2.70;;
14251;SDS011;7210;51.502;10.722;2023-11-19T08:26:19;5.10;;;2.37;;
14251;SDS011;7210;51.502;10.722;2023-11-19T08:28:52;7.17;;;2.60;;
14251;SDS011;7210;51.502;10.722;2023-11-19T08:31:19;10.27;;;2.60;;
14251;SDS011;7210;51.502;10.722;2023-11-19T08:33:57;11.50;;;4.50;;
14251;SDS011;7210;51.502;10.722;2023-11-19T08:36:24;12.30;;;3.50;;
14251;SDS011;7210;51.502;10.722;2023-11-19T08:38:51;8.97;;;2.80;;
14251;SDS011;7210;51.502;10.722;2023-11-19T08:41:18;5.60;;;2.33;;
14251;SDS011;7210;51.502;10.722;2023-11-19T08:43:45;5.53;;;2.70;;
14251;SDS011;7210;51.502;10.722;2023-11-19T08:46:13;8.03;;;2.50;;
14251;SDS011;7210;51.502;10.722;2023-11-19T08:48:40;7.27;;;2.60;;
14251;SDS011;7210;51.502;10.722;2023-11-19T08:51:07;8.03;;;2.57;;
14251;SDS011;7210;51.502;10.722;2023-11-19T08:53:39;7.33;;;2.60;;
14251;SDS011;7210;51.502;10.722;2023-11-19T08:56:09;6.50;;;2.30;;
14251;SDS011;7210;51.502;10.722;2023-11-19T08:58:36;5.10;;;2.13;;
14251;SDS011;7210;51.502;10.722;2023-11-19T09:01:03;9.00;;;2.37;;
14251;SDS011;7210;51.502;10.722;2023-11-19T09:03:32;8.23;;;2.80;;
14251;SDS011;7210;51.502;10.722;2023-11-19T09:06:03;8.67;;;2.63;;
14251;SDS011;7210;51.502;10.722;2023-11-19T09:08:30;5.33;;;2.37;;
14251;SDS011;7210;51.502;10.722;2023-11-19T09:10:57;7.37;;;2.30;;
14251;SDS011;7210;51.502;10.722;2023-11-19T09:13:24;5.07;;;2.20;;
14251;SDS011;7210;51.502;10.722;2023-11-19T09:15:51;7.97;;;2.67;;
14251;SDS011;7210;51.502;10.722;2023-11-19T09:18:18;6.60;;;2.40;;
14251;SDS011;7210;51.502;10.722;2023-11-19T09:20:46;4.53;;;1.90;;
14251;SDS011;7210;51.502;10.722;2023-11-19T09:23:15;5.70;;;2.30;;
14251;SDS011;7210;51.502;10.722;2023-11-19T09:25:42;5.80;;;2.20;;
14251;SDS011;7210;51.502;10.722;2023-11-19T09:28:09;7.10;;;3.07;;
14251;SDS011;7210;51.502;10.722;2023-11-19T09:30:39;6.60;;;2.10;;
14251;SDS011;7210;51.502;10.722;2023-11-19T09:33:09;7.60;;;2.40;;
14251;SDS011;7210;51.502;10.722;2023-11-19T09:35:36;6.47;;;2.47;;
14251;SDS011;7210;51.502;10.722;2023-11-19T09:38:04;9.27;;;2.70;;
14251;SDS011;7210;51.502;10.722;2023-11-19T09:40:33;10.77;;;2.70;;
14251;SDS011;7210;51.502;10.722;2023-11-19T09:43:03;9.60;;;2.60;;
14251;SDS011;7210;51.502;10.722;2023-11-19T09:45:30;9.20;;;2.53;;
14251;SDS011;7210;51.502;10.722;2023-11-19T09:48:09;10.23;;;2.63;;
14251;SDS011;7210;51.502;10.722;2023-11-19T09:50:36;13.07;;;3.37;;
14251;SDS011;7210;51.502;10.722;2023-11-19T09:53:05;14.33;;;3.60;;
14251;SDS011;7210;51.502;10.722;2023-11-19T09:55:32;11.20;;;3.50;;
14251;SDS011;7210;51.502;10.722;2023-11-19T09:57:59;9.10;;;3.50;;
14251;SDS011;7210;51.502;10.722;2023-11-19T10:00:33;10.07;;;2.37;;
14251;SDS011;7210;51.502;10.722;2023-11-19T10:03:03;13.60;;;3.30;;
14251;SDS011;7210;51.502;10.722;2023-11-19T10:05:32;9.70;;;3.53;;
14251;SDS011;7210;51.502;10.722;2023-11-19T10:07:59;9.07;;;2.63;;
14251;SDS011;7210;51.502;10.722;2023-11-19T10:10:29;9.30;;;3.10;;
14251;SDS011;7210;51.502;10.722;2023-11-19T10:12:56;7.60;;;2.53;;
14251;SDS011;7210;51.502;10.722;2023-11-19T10:15:25;10.37;;;2.77;;
14251;SDS011;7210;51.502;10.722;2023-11-19T10:17:54;9.63;;;2.87;;
14251;SDS011;7210;51.502;10.722;2023-11-19T10:20:22;12.87;;;3.20;;
14251;SDS011;7210;51.502;10.722;2023-11-19T10:22:52;11.53;;;3.30;;
14251;SDS011;7210;51.502;10.722;2023-11-19T10:25:23;12.60;;;2.90;;
14251;SDS011;7210;51.502;10.722;2023-11-19T10:27:52;10.43;;;3.30;;
14251;SDS011;7210;51.502;10.722;2023-11-19T10:30:20;12.93;;;3.20;;
14251;SDS011;7210;51.502;10.722;2023-11-19T10:33:02;10.73;;;3.33;;
14251;SDS011;7210;51.502;10.722;2023-11-19T10:35:31;7.90;;;2.37;;
14251;SDS011;7210;51.502;10.722;2023-11-19T10:37:59;11.03;;;3.13;;
14251;SDS011;7210;51.502;10.722;2023-11-19T10:40:39;14.17;;;3.30;;
14251;SDS011;7210;51.502;10.722;2023-11-19T10:43:08;11.87;;;2.90;;
14251;SDS011;7210;51.502;10.722;2023-11-19T10:45:35;13.57;;;2.80;;
14251;SDS011;7210;51.502;10.722;2023-11-19T10:48:04;11.10;;;2.70;;
14251;SDS011;7210;51.502;10.722;2023-11-19T10:50:32;11.83;;;3.10;;
14251;SDS011;7210;51.502;10.722;2023-11-19T10:53:00;13.33;;;3.90;;
14251;SDS011;7210;51.502;10.722;2023-11-19T10:55:28;11.93;;;2.83;;
14251;SDS011;7210;51.502;10.722;2023-11-19T10:57:58;11.73;;;2.60;;
14251;SDS011;7210;51.502;10.722;2023-11-19T11:00:30;13.93;;;3.33;;
14251;SDS011;7210;51.502;10.722;2023-11-19T11:03:05;10.80;;;2.90;;
14251;SDS011;7210;51.502;10.722;2023-11-19T11:05:37;13.27;;;3.33;;
14251;SDS011;7210;51.502;10.722;2023-11-19T11:08:05;17.83;;;4.53;;
14251;SDS011;7210;51.502;10.722;2023-11-19T11:10:35;12.07;;;2.70;;
14251;SDS011;7210;51.502;10.722;2023-11-19T11:13:09;13.00;;;3.60;;
14251;SDS011;7210;51.502;10.722;2023-11-19T11:15:40;14.50;;;3.47;;
14251;SDS011;7210;51.502;10.722;2023-11-19T11:18:08;10.97;;;3.20;;
14251;SDS011;7210;51.502;10.722;2023-11-19T11:20:35;13.83;;;4.73;;
14251;SDS011;7210;51.502;10.722;2023-11-19T11:26:17;12.03;;;2.83;;
14251;SDS011;7210;51.502;10.722;2023-11-19T11:29:00;12.03;;;3.07;;
14251;SDS011;7210;51.502;10.722;2023-11-19T11:31:35;10.00;;;3.23;;
14251;SDS011;7210;51.502;10.722;2023-11-19T11:34:14;11.13;;;3.27;;
14251;SDS011;7210;51.502;10.722;2023-11-19T11:36:58;14.00;;;3.30;;
14251;SDS011;7210;51.502;10.722;2023-11-19T11:39:34;14.50;;;3.30;;
14251;SDS011;7210;51.502;10.722;2023-11-19T11:45:02;11.80;;;3.17;;
14251;SDS011;7210;51.502;10.722;2023-11-19T11:50:47;14.60;;;3.60;;
14251;SDS011;7210;51.502;10.722;2023-11-19T11:53:16;11.23;;;3.33;;
14251;SDS011;7210;51.502;10.722;2023-11-19T11:55:54;14.57;;;3.40;;
14251;SDS011;7210;51.502;10.722;2023-11-19T11:58:31;11.53;;;3.30;;
14251;SDS011;7210;51.502;10.722;2023-11-19T12:00:59;14.73;;;3.20;;
14251;SDS011;7210;51.502;10.722;2023-11-19T12:03:30;12.37;;;3.57;;
14251;SDS011;7210;51.502;10.722;2023-11-19T12:05:58;16.53;;;4.13;;
14251;SDS011;7210;51.502;10.722;2023-11-19T12:08:26;15.70;;;3.50;;
14251;SDS011;7210;51.502;10.722;2023-11-19T12:10:55;15.10;;;3.77;;
14251;SDS011;7210;51.502;10.722;2023-11-19T12:13:24;14.77;;;3.83;;
14251;SDS011;7210;51.502;10.722;2023-11-19T12:16:08;10.70;;;3.20;;
14251;SDS011;7210;51.502;10.722;2023-11-19T12:18:38;12.70;;;3.00;;
14251;SDS011;7210;51.502;10.722;2023-11-19T12:21:07;16.13;;;3.63;;
14251;SDS011;7210;51.502;10.722;2023-11-19T12:23:35;11.57;;;3.10;;
14251;SDS011;7210;51.502;10.722;2023-11-19T12:26:31;14.37;;;3.67;;
14251;SDS011;7210;51.502;10.722;2023-11-19T12:29:03;14.67;;;3.17;;
14251;SDS011;7210;51.502;10.722;2023-11-19T12:31:31;12.10;;;3.37;;
14251;SDS011;7210;51.502;10.722;2023-11-19T12:34:06;16.33;;;3.90;;
14251;SDS011;7210;51.502;10.722;2023-11-19T12:36:39;10.17;;;3.33;;
14251;SDS011;7210;51.502;10.722;2023-11-19T12:39:10;13.80;;;3.50;;
14251;SDS011;7210;51.502;10.722;2023-11-19T12:41:52;13.90;;;3.87;;
14251;SDS011;7210;51.502;10.722;2023-11-19T12:44:19;14.53;;;3.20;;
14251;SDS011;7210;51.502;10.722;2023-11-19T12:46:59;11.87;;;3.50;;
14251;SDS011;7210;51.502;10.722;2023-11-19T12:49:30;10.77;;;2.90;;
14251;SDS011;7210;51.502;10.722;2023-11-19T12:52:11;12.83;;;3.50;;
14251;SDS011;7210;51.502;10.722;2023-11-19T12:54:38;9.90;;;2.80;;
14251;SDS011;7210;51.502;10.722;2023-11-19T12:57:09;11.60;;;3.53;;
14251;SDS011;7210;51.502;10.722;2023-11-19T12:59:36;13.57;;;3.77;;
14251;SDS011;7210;51.502;10.722;2023-11-19T13:02:04;10.57;;;3.43;;
14251;SDS011;7210;51.502;10.722;2023-11-19T13:04:33;17.67;;;3.83;;
14251;SDS011;7210;51.502;10.722;2023-11-19T13:07:03;14.47;;;3.60;;
14251;SDS011;7210;51.502;10.722;2023-11-19T13:09:30;11.83;;;3.77;;
14251;SDS011;7210;51.502;10.722;2023-11-19T13:11:58;11.03;;;3.03;;
14251;SDS011;7210;51.502;10.722;2023-11-19T13:14:36;11.07;;;3.53;;
14251;SDS011;7210;51.502;10.722;2023-11-19T13:17:03;15.17;;;3.10;;
14251;SDS011;7210;51.502;10.722;2023-11-19T13:19:31;11.40;;;3.27;;
14251;SDS011;7210;51.502;10.722;2023-11-19T13:22:00;12.63;;;3.47;;
14251;SDS011;7210;51.502;10.722;2023-11-19T13:24:27;11.40;;;3.40;;
14251;SDS011;7210;51.502;10.722;2023-11-19T13:26:57;13.40;;;3.30;;
14251;SDS011;7210;51.502;10.722;2023-11-19T13:29:24;15.57;;;3.87;;
14251;SDS011;7210;51.502;10.722;2023-11-19T13:31:52;10.77;;;2.60;;
14251;SDS011;7210;51.502;10.722;2023-11-19T13:34:19;13.03;;;3.27;;
14251;SDS011;7210;51.502;10.722;2023-11-19T13:36:48;12.37;;;3.20;;
14251;SDS011;7210;51.502;10.722;2023-11-19T13:39:15;18.90;;;4.10;;
14251;SDS011;7210;51.502;10.722;2023-11-19T13:41:48;16.13;;;3.30;;
14251;SDS011;7210;51.502;10.722;2023-11-19T13:44:15;11.27;;;3.20;;
14251;SDS011;7210;51.502;10.722;2023-11-19T13:46:44;13.77;;;3.50;;
14251;SDS011;7210;51.502;10.722;2023-11-19T13:49:12;13.97;;;3.73;;
14251;SDS011;7210;51.502;10.722;2023-11-19T13:51:39;14.53;;;3.60;;
14251;SDS011;7210;51.502;10.722;2023-11-19T13:54:09;12.33;;;3.63;;
14251;SDS011;7210;51.502;10.722;2023-11-19T13:56:36;16.13;;;3.57;;
14251;SDS011;7210;51.502;10.722;2023-11-19T13:59:03;11.13;;;3.37;;
14251;SDS011;7210;51.502;10.722;2023-11-19T14:01:30;11.73;;;3.23;;
14251;SDS011;7210;51.502;10.722;2023-11-19T14:03:57;14.30;;;3.20;;
14251;SDS011;7210;51.502;10.722;2023-11-19T14:06:24;15.77;;;4.30;;
14251;SDS011;7210;51.502;10.722;2023-11-19T14:08:57;14.53;;;3.60;;
14251;SDS011;7210;51.502;10.722;2023-11-19T14:11:25;15.17;;;3.20;;
14251;SDS011;7210;51.502;10.722;2023-11-19T14:13:52;12.17;;;3.40;;
14251;SDS011;7210;51.502;10.722;2023-11-19T14:16:19;11.50;;;3.23;;
14251;SDS011;7210;51.502;10.722;2023-11-19T14:18:46;13.13;;;3.07;;
14251;SDS011;7210;51.502;10.722;2023-11-19T14:21:21;12.97;;;3.60;;
14251;SDS011;7210;51.502;10.722;2023-11-19T14:23:48;16.60;;;4.10;;
14251;SDS011;7210;51.502;10.722;2023-11-19T14:26:15;15.50;;;4.20;;
14251;SDS011;7210;51.502;10.722;2023-11-19T14:28:43;12.50;;;3.70;;
14251;SDS011;7210;51.502;10.722;2023-11-19T14:31:10;13.57;;;4.07;;
14251;SDS011;7210;51.502;10.722;2023-11-19T14:33:37;17.07;;;4.07;;
14251;SDS011;7210;51.502;10.722;2023-11-19T14:36:09;18.17;;;3.60;;
14251;SDS011;7210;51.502;10.722;2023-11-19T14:38:45;20.60;;;4.00;;
14251;SDS011;7210;51.502;10.722;2023-11-19T14:41:12;18.87;;;4.17;;
14251;SDS011;7210;51.502;10.722;2023-11-19T14:43:39;12.67;;;3.70;;
14251;SDS011;7210;51.502;10.722;2023-11-19T14:46:16;14.70;;;3.93;;
14251;SDS011;7210;51.502;10.722;2023-11-19T14:48:43;13.60;;;3.90;;
14251;SDS011;7210;51.502;10.722;2023-11-19T14:51:10;11.67;;;3.37;;
14251;SDS011;7210;51.502;10.722;2023-11-19T14:53:38;16.67;;;3.93;;
14251;SDS011;7210;51.502;10.722;2023-11-19T14:56:05;16.47;;;3.50;;
14251;SDS011;7210;51.502;10.722;2023-11-19T14:58:37;17.40;;;4.13;;
14251;SDS011;7210;51.502;10.722;2023-11-19T15:01:05;13.20;;;3.53;;
14251;SDS011;7210;51.502;10.722;2023-11-19T15:03:34;13.33;;;4.20;;